ENBS Airport Information

Runway Information
Runway 03 Length 3281 ft width 98 ft Elevation 480 ft Threshold N/A Heading 44
Runway 21 Length 3281 ft Width 98 ft Elevation 489 ft Threshold N/A Heading 224
Airport Frequencies
Type AFIS Name INFO Frequency 123.4 MHZ
Airport Navaids
Type NDB Name Batsfjord Frequency 348 KHZ
Airport Weather Information & NOTAM
ADDS - METARS form results

(1549 UTC 01 December 2022)
Data provider http://aviationweather.gov/metar/data/
 
METAR text: ENBS 011520Z 21005KT 9999 BKN008 M02/M03 Q1035
Conditions at: ENBS (BATSFJORD , NO) observed 1520 UTC 01 December 2022
Temperature: -2.0°C (28°F)
Dewpoint: -3.0°C (27°F) [RH = 93%]
Pressure (altimeter): 30.56 inches Hg (1035.0 mb)
Winds: from the SSW (210 degrees) at 6 MPH (5 knots; 2.6 m/s)
Visibility: 6 or more miles (10+ km)
Ceiling: 800 feet AGL
Clouds: broken clouds at 800 feet AGL
Weather: no significant weather observed at this time

METAR text: ENBS 011450Z 21006KT 9999 BKN009 M02/M03 Q1035
Conditions at: ENBS (BATSFJORD , NO) observed 1450 UTC 01 December 2022
Temperature: -2.0°C (28°F)
Dewpoint: -3.0°C (27°F) [RH = 93%]
Pressure (altimeter): 30.56 inches Hg (1035.0 mb)
Winds: from the SSW (210 degrees) at 7 MPH (6 knots; 3.1 m/s)
Visibility: 6 or more miles (10+ km)
Ceiling: 900 feet AGL
Clouds: broken clouds at 900 feet AGL
Weather: no significant weather observed at this time

Forecast for: ENBS (BATSFJORD , NO)
Text: TAF ENBS 011400Z 0115/0122 21005KT 9999 SCT010 BKN020
Forecast period: 1500 to 2200 UTC 01 December 2022
Forecast type: FROM: standard forecast or significant change
Winds: from the SSW (210 degrees) at 6 MPH (5 knots; 2.6 m/s)
Visibility: 6 or more miles (10+ km)
Ceiling: 2000 feet AGL
Clouds: scattered clouds at 1000 feet AGL
broken clouds at 2000 feet AGL
Weather: no significant weather forecast for this period
Text: TEMPO 0115/0122 BKN009
Forecast period: 1500 to 2200 UTC 01 December 2022
Forecast type: TEMPORARY: The following changes expected for less than half the time period
Visibility: missing
Ceiling: 900 feet AGL
Clouds: broken clouds at 900 feet AGL
Weather: no significant weather forecast for this period